sensor_id;sensor_type;location;lat;lon;timestamp;pressure;altitude;pressure_sealevel;temperature;humidity
11672;BME280;5892;43.412;24.612;2023-04-26T00:01:57;98993.72;;;11.61;100.00
11672;BME280;5892;43.412;24.612;2023-04-26T00:04:26;98996.56;;;11.65;100.00
11672;BME280;5892;43.412;24.612;2023-04-26T00:06:54;98998.16;;;11.66;100.00
11672;BME280;5892;43.412;24.612;2023-04-26T00:09:21;98985.63;;;11.53;100.00
11672;BME280;5892;43.412;24.612;2023-04-26T00:11:47;98994.75;;;11.57;100.00
11672;BME280;5892;43.412;24.612;2023-04-26T00:14:14;98992.00;;;11.57;100.00
11672;BME280;5892;43.412;24.612;2023-04-26T00:16:42;98992.47;;;11.59;100.00
11672;BME280;5892;43.412;24.612;2023-04-26T00:19:08;98961.19;;;11.20;100.00
11672;BME280;5892;43.412;24.612;2023-04-26T00:21:37;98972.53;;;11.46;100.00
11672;BME280;5892;43.412;24.612;2023-04-26T00:24:05;98983.91;;;11.60;100.00
11672;BME280;5892;43.412;24.612;2023-04-26T00:26:32;98982.31;;;11.59;100.00
11672;BME280;5892;43.412;24.612;2023-04-26T00:28:59;98984.78;;;11.64;100.00
11672;BME280;5892;43.412;24.612;2023-04-26T00:31:27;98924.81;;;11.35;100.00
11672;BME280;5892;43.412;24.612;2023-04-26T00:33:54;98891.72;;;11.16;100.00
11672;BME280;5892;43.412;24.612;2023-04-26T00:36:21;98970.97;;;11.61;100.00
11672;BME280;5892;43.412;24.612;2023-04-26T00:38:49;98961.63;;;11.62;100.00
11672;BME280;5892;43.412;24.612;2023-04-26T00:41:16;98972.34;;;11.67;100.00
11672;BME280;5892;43.412;24.612;2023-04-26T00:43:43;98977.56;;;11.72;100.00
11672;BME280;5892;43.412;24.612;2023-04-26T00:46:10;98966.31;;;11.61;100.00
11672;BME280;5892;43.412;24.612;2023-04-26T00:48:37;98973.22;;;11.71;100.00
11672;BME280;5892;43.412;24.612;2023-04-26T00:51:04;98958.75;;;11.58;100.00
11672;BME280;5892;43.412;24.612;2023-04-26T00:53:31;98955.47;;;11.53;100.00
11672;BME280;5892;43.412;24.612;2023-04-26T00:56:01;98928.94;;;11.29;100.00
11672;BME280;5892;43.412;24.612;2023-04-26T00:58:28;98967.47;;;11.48;100.00
11672;BME280;5892;43.412;24.612;2023-04-26T01:00:55;98956.66;;;11.39;100.00
11672;BME280;5892;43.412;24.612;2023-04-26T01:03:26;98953.47;;;11.37;100.00
11672;BME280;5892;43.412;24.612;2023-04-26T01:05:54;98959.34;;;11.52;100.00
11672;BME280;5892;43.412;24.612;2023-04-26T01:08:22;98954.47;;;11.45;100.00
11672;BME280;5892;43.412;24.612;2023-04-26T01:10:49;98959.03;;;11.41;100.00
11672;BME280;5892;43.412;24.612;2023-04-26T01:13:17;98956.09;;;11.46;100.00
11672;BME280;5892;43.412;24.612;2023-04-26T01:15:45;98955.06;;;11.38;100.00
11672;BME280;5892;43.412;24.612;2023-04-26T01:18:12;98950.94;;;11.44;100.00
11672;BME280;5892;43.412;24.612;2023-04-26T01:20:39;98944.19;;;11.42;100.00
11672;BME280;5892;43.412;24.612;2023-04-26T01:23:09;98949.41;;;11.47;100.00
11672;BME280;5892;43.412;24.612;2023-04-26T01:25:38;98926.75;;;11.34;100.00
11672;BME280;5892;43.412;24.612;2023-04-26T01:28:05;98948.19;;;11.44;100.00
11672;BME280;5892;43.412;24.612;2023-04-26T01:30:32;98944.97;;;11.42;100.00
11672;BME280;5892;43.412;24.612;2023-04-26T01:32:59;98938.09;;;11.48;100.00
11672;BME280;5892;43.412;24.612;2023-04-26T01:35:26;98943.59;;;11.48;100.00
11672;BME280;5892;43.412;24.612;2023-04-26T01:37:53;98845.06;;;11.00;100.00
11672;BME280;5892;43.412;24.612;2023-04-26T01:40:21;98932.38;;;11.54;100.00
11672;BME280;5892;43.412;24.612;2023-04-26T01:42:48;98967.94;;;11.50;100.00
11672;BME280;5892;43.412;24.612;2023-04-26T01:45:15;98876.28;;;11.23;100.00
11672;BME280;5892;43.412;24.612;2023-04-26T01:47:42;98916.25;;;11.52;100.00
11672;BME280;5892;43.412;24.612;2023-04-26T01:50:09;98923.69;;;11.52;100.00
11672;BME280;5892;43.412;24.612;2023-04-26T01:52:36;98924.16;;;11.54;100.00
11672;BME280;5892;43.412;24.612;2023-04-26T01:55:04;98922.69;;;11.44;100.00
11672;BME280;5892;43.412;24.612;2023-04-26T01:57:33;98919.00;;;11.52;100.00
11672;BME280;5892;43.412;24.612;2023-04-26T02:00:00;98923.00;;;11.55;100.00
11672;BME280;5892;43.412;24.612;2023-04-26T02:02:27;98921.66;;;11.48;100.00
11672;BME280;5892;43.412;24.612;2023-04-26T02:04:54;98925.53;;;11.47;100.00
11672;BME280;5892;43.412;24.612;2023-04-26T02:07:21;98911.56;;;11.53;100.00
11672;BME280;5892;43.412;24.612;2023-04-26T02:09:48;98913.88;;;11.51;100.00
11672;BME280;5892;43.412;24.612;2023-04-26T02:12:15;98893.94;;;11.38;100.00
11672;BME280;5892;43.412;24.612;2023-04-26T02:14:43;98918.91;;;11.48;100.00
11672;BME280;5892;43.412;24.612;2023-04-26T02:17:10;98915.69;;;11.46;100.00
11672;BME280;5892;43.412;24.612;2023-04-26T02:19:38;98886.22;;;11.28;100.00
11672;BME280;5892;43.412;24.612;2023-04-26T02:22:05;98902.25;;;11.41;100.00
11672;BME280;5892;43.412;24.612;2023-04-26T02:24:32;98913.69;;;11.43;100.00
11672;BME280;5892;43.412;24.612;2023-04-26T02:26:59;98916.06;;;11.45;100.00
11672;BME280;5892;43.412;24.612;2023-04-26T02:29:28;98913.94;;;11.38;100.00
11672;BME280;5892;43.412;24.612;2023-04-26T02:31:56;98912.06;;;11.42;100.00
11672;BME280;5892;43.412;24.612;2023-04-26T02:34:23;98900.72;;;11.28;100.00
11672;BME280;5892;43.412;24.612;2023-04-26T02:36:50;98920.38;;;11.30;100.00
11672;BME280;5892;43.412;24.612;2023-04-26T02:39:17;98820.59;;;10.39;100.00
11672;BME280;5892;43.412;24.612;2023-04-26T02:41:45;98915.59;;;11.15;100.00
11672;BME280;5892;43.412;24.612;2023-04-26T02:44:12;98924.75;;;11.19;100.00
11672;BME280;5892;43.412;24.612;2023-04-26T02:46:39;98897.38;;;11.07;100.00
11672;BME280;5892;43.412;24.612;2023-04-26T02:49:07;98925.09;;;11.18;100.00
11672;BME280;5892;43.412;24.612;2023-04-26T02:51:35;98922.25;;;11.14;100.00
11672;BME280;5892;43.412;24.612;2023-04-26T02:54:02;98915.84;;;11.10;100.00
11672;BME280;5892;43.412;24.612;2023-04-26T02:56:29;98924.53;;;11.12;100.00
11672;BME280;5892;43.412;24.612;2023-04-26T02:58:56;98910.84;;;11.00;100.00
11672;BME280;5892;43.412;24.612;2023-04-26T03:01:23;98926.41;;;10.96;100.00
11672;BME280;5892;43.412;24.612;2023-04-26T03:03:50;98936.13;;;10.93;100.00
11672;BME280;5892;43.412;24.612;2023-04-26T03:06:19;98938.16;;;10.96;100.00
11672;BME280;5892;43.412;24.612;2023-04-26T03:08:45;98948.56;;;10.91;100.00
11672;BME280;5892;43.412;24.612;2023-04-26T03:11:12;98958.38;;;10.92;100.00
11672;BME280;5892;43.412;24.612;2023-04-26T03:13:39;98949.03;;;10.93;100.00
11672;BME280;5892;43.412;24.612;2023-04-26T03:16:07;98954.75;;;10.76;100.00
11672;BME280;5892;43.412;24.612;2023-04-26T03:18:34;98948.47;;;10.75;100.00
11672;BME280;5892;43.412;24.612;2023-04-26T03:21:02;98954.53;;;10.81;100.00
11672;BME280;5892;43.412;24.612;2023-04-26T03:23:30;98825.50;;;9.85;100.00
11672;BME280;5892;43.412;24.612;2023-04-26T03:25:57;98954.88;;;10.67;100.00
11672;BME280;5892;43.412;24.612;2023-04-26T03:28:24;98850.94;;;9.86;100.00
11672;BME280;5892;43.412;24.612;2023-04-26T03:30:51;98965.94;;;10.58;100.00
11672;BME280;5892;43.412;24.612;2023-04-26T03:33:17;98962.06;;;10.59;100.00
11672;BME280;5892;43.412;24.612;2023-04-26T03:35:44;98960.38;;;10.55;100.00
11672;BME280;5892;43.412;24.612;2023-04-26T03:38:12;98963.69;;;10.60;100.00
11672;BME280;5892;43.412;24.612;2023-04-26T03:40:40;98965.75;;;10.51;100.00
11672;BME280;5892;43.412;24.612;2023-04-26T03:43:07;98965.84;;;10.55;100.00
11672;BME280;5892;43.412;24.612;2023-04-26T03:45:34;98965.38;;;10.53;100.00
11672;BME280;5892;43.412;24.612;2023-04-26T03:48:01;98954.53;;;10.44;100.00
11672;BME280;5892;43.412;24.612;2023-04-26T03:50:31;98936.31;;;10.36;100.00
11672;BME280;5892;43.412;24.612;2023-04-26T03:52:58;98961.84;;;10.52;100.00
11672;BME280;5892;43.412;24.612;2023-04-26T03:55:25;98963.44;;;10.78;100.00
11672;BME280;5892;43.412;24.612;2023-04-26T03:57:53;98959.22;;;11.60;100.00
11672;BME280;5892;43.412;24.612;2023-04-26T04:00:20;98958.97;;;12.71;100.00
11672;BME280;5892;43.412;24.612;2023-04-26T04:02:47;98940.94;;;13.44;100.00
11672;BME280;5892;43.412;24.612;2023-04-26T04:05:15;98954.41;;;13.91;96.86
11672;BME280;5892;43.412;24.612;2023-04-26T04:07:43;98959.50;;;14.34;93.19
11672;BME280;5892;43.412;24.612;2023-04-26T04:10:10;98959.50;;;14.80;91.77
11672;BME280;5892;43.412;24.612;2023-04-26T04:12:37;98972.81;;;15.60;87.31
11672;BME280;5892;43.412;24.612;2023-04-26T04:15:06;98979.81;;;15.84;85.11
11672;BME280;5892;43.412;24.612;2023-04-26T04:17:33;98974.09;;;16.00;83.41
11672;BME280;5892;43.412;24.612;2023-04-26T04:20:01;98993.06;;;16.45;81.62
11672;BME280;5892;43.412;24.612;2023-04-26T04:22:30;98983.50;;;16.32;80.56
11672;BME280;5892;43.412;24.612;2023-04-26T04:24:57;98978.31;;;15.57;82.77
11672;BME280;5892;43.412;24.612;2023-04-26T04:27:24;99001.00;;;15.43;83.57
11672;BME280;5892;43.412;24.612;2023-04-26T04:29:51;98970.91;;;14.56;85.62
11672;BME280;5892;43.412;24.612;2023-04-26T04:32:21;98990.69;;;14.61;87.63
11672;BME280;5892;43.412;24.612;2023-04-26T04:34:48;98990.28;;;14.59;87.29
11672;BME280;5892;43.412;24.612;2023-04-26T04:37:16;99006.41;;;14.15;89.79
11672;BME280;5892;43.412;24.612;2023-04-26T04:39:43;98986.88;;;13.82;91.18
11672;BME280;5892;43.412;24.612;2023-04-26T04:42:10;98999.88;;;13.62;93.05
11672;BME280;5892;43.412;24.612;2023-04-26T04:44:37;98955.09;;;13.46;93.27
11672;BME280;5892;43.412;24.612;2023-04-26T04:47:04;98982.63;;;13.84;93.01
11672;BME280;5892;43.412;24.612;2023-04-26T04:49:32;98984.34;;;14.57;91.02
11672;BME280;5892;43.412;24.612;2023-04-26T04:52:02;98970.88;;;15.05;87.12
11672;BME280;5892;43.412;24.612;2023-04-26T04:54:29;98986.03;;;15.18;85.04
11672;BME280;5892;43.412;24.612;2023-04-26T04:56:55;98992.84;;;14.98;86.03
11672;BME280;5892;43.412;24.612;2023-04-26T04:59:23;98982.88;;;14.63;87.02
11672;BME280;5892;43.412;24.612;2023-04-26T05:01:50;98981.19;;;14.36;87.45
11672;BME280;5892;43.412;24.612;2023-04-26T05:04:16;98948.72;;;14.03;88.58
11672;BME280;5892;43.412;24.612;2023-04-26T05:06:45;98984.41;;;14.38;89.02
11672;BME280;5892;43.412;24.612;2023-04-26T05:09:12;98980.59;;;14.69;88.00
11672;BME280;5892;43.412;24.612;2023-04-26T05:11:39;98944.78;;;14.99;86.15
11672;BME280;5892;43.412;24.612;2023-04-26T05:14:05;98972.41;;;15.02;85.58
11672;BME280;5892;43.412;24.612;2023-04-26T05:16:34;98974.56;;;14.86;85.64
11672;BME280;5892;43.412;24.612;2023-04-26T05:19:01;98975.53;;;15.27;84.94
11672;BME280;5892;43.412;24.612;2023-04-26T05:21:29;98968.66;;;15.14;83.74
11672;BME280;5892;43.412;24.612;2023-04-26T05:23:58;98978.56;;;14.92;84.87
11672;BME280;5892;43.412;24.612;2023-04-26T05:26:24;98984.56;;;14.98;85.57
11672;BME280;5892;43.412;24.612;2023-04-26T05:28:51;98957.69;;;14.65;86.71
11672;BME280;5892;43.412;24.612;2023-04-26T05:31:19;98983.09;;;14.77;86.72
11672;BME280;5892;43.412;24.612;2023-04-26T05:33:46;98952.00;;;14.31;87.28
11672;BME280;5892;43.412;24.612;2023-04-26T05:36:13;98994.03;;;14.70;87.80
11672;BME280;5892;43.412;24.612;2023-04-26T05:38:39;98986.78;;;14.62;89.38
11672;BME280;5892;43.412;24.612;2023-04-26T05:41:08;98988.59;;;15.30;87.64
11672;BME280;5892;43.412;24.612;2023-04-26T05:43:35;98984.06;;;15.75;84.99
11672;BME280;5892;43.412;24.612;2023-04-26T05:46:02;98978.03;;;16.02;83.90
11672;BME280;5892;43.412;24.612;2023-04-26T05:48:29;98982.59;;;16.21;83.02
11672;BME280;5892;43.412;24.612;2023-04-26T05:50:56;98970.28;;;16.15;82.81
11672;BME280;5892;43.412;24.612;2023-04-26T05:53:23;98985.66;;;16.53;81.62
11672;BME280;5892;43.412;24.612;2023-04-26T05:55:50;99000.41;;;16.64;77.39
11672;BME280;5892;43.412;24.612;2023-04-26T05:58:19;98995.94;;;17.00;77.06
11672;BME280;5892;43.412;24.612;2023-04-26T06:00:46;99004.06;;;17.41;75.17
11672;BME280;5892;43.412;24.612;2023-04-26T06:03:13;99009.63;;;17.44;73.19
11672;BME280;5892;43.412;24.612;2023-04-26T06:05:40;99004.13;;;17.48;73.31
11672;BME280;5892;43.412;24.612;2023-04-26T06:08:07;98981.25;;;17.65;71.45
11672;BME280;5892;43.412;24.612;2023-04-26T06:10:35;98952.59;;;17.32;70.51
11672;BME280;5892;43.412;24.612;2023-04-26T06:13:02;98979.31;;;17.69;64.79
11672;BME280;5892;43.412;24.612;2023-04-26T06:15:31;98998.78;;;17.94;65.26
11672;BME280;5892;43.412;24.612;2023-04-26T06:17:58;99003.16;;;18.02;62.43
11672;BME280;5892;43.412;24.612;2023-04-26T06:20:25;98990.03;;;17.74;61.06
11672;BME280;5892;43.412;24.612;2023-04-26T06:22:52;99023.28;;;17.74;62.29
11672;BME280;5892;43.412;24.612;2023-04-26T06:25:19;98961.38;;;17.45;60.77
11672;BME280;5892;43.412;24.612;2023-04-26T06:27:46;99016.97;;;17.88;63.08
11672;BME280;5892;43.412;24.612;2023-04-26T06:30:13;99016.94;;;17.77;60.66
11672;BME280;5892;43.412;24.612;2023-04-26T06:32:41;98997.16;;;17.86;62.16
11672;BME280;5892;43.412;24.612;2023-04-26T06:35:08;99011.84;;;17.93;62.00
11672;BME280;5892;43.412;24.612;2023-04-26T06:37:36;99013.41;;;17.87;63.31
11672;BME280;5892;43.412;24.612;2023-04-26T06:40:05;99002.41;;;18.23;61.42
11672;BME280;5892;43.412;24.612;2023-04-26T06:42:32;99024.91;;;17.96;60.33
11672;BME280;5892;43.412;24.612;2023-04-26T06:45:00;99020.22;;;18.07;59.44
11672;BME280;5892;43.412;24.612;2023-04-26T06:47:27;99023.38;;;18.06;58.91
11672;BME280;5892;43.412;24.612;2023-04-26T06:49:56;99005.25;;;18.37;59.13
11672;BME280;5892;43.412;24.612;2023-04-26T06:52:22;99008.84;;;18.58;58.89
11672;BME280;5892;43.412;24.612;2023-04-26T06:54:50;99007.66;;;18.67;59.08
11672;BME280;5892;43.412;24.612;2023-04-26T06:57:17;99012.81;;;18.75;59.69
11672;BME280;5892;43.412;24.612;2023-04-26T06:59:44;98978.69;;;18.53;60.86
11672;BME280;5892;43.412;24.612;2023-04-26T07:02:11;99020.34;;;18.82;59.64
11672;BME280;5892;43.412;24.612;2023-04-26T07:04:38;99024.25;;;18.42;58.01
11672;BME280;5892;43.412;24.612;2023-04-26T07:07:06;99024.25;;;18.35;57.94
11672;BME280;5892;43.412;24.612;2023-04-26T07:09:34;99024.66;;;18.40;57.54
11672;BME280;5892;43.412;24.612;2023-04-26T07:12:01;99029.47;;;18.61;57.65
11672;BME280;5892;43.412;24.612;2023-04-26T07:14:28;99032.91;;;18.15;57.10
11672;BME280;5892;43.412;24.612;2023-04-26T07:16:55;99026.94;;;18.03;57.22
11672;BME280;5892;43.412;24.612;2023-04-26T07:19:23;99032.50;;;18.13;56.78
11672;BME280;5892;43.412;24.612;2023-04-26T07:21:49;99031.38;;;18.39;57.77
11672;BME280;5892;43.412;24.612;2023-04-26T07:24:18;99023.06;;;18.43;57.85
11672;BME280;5892;43.412;24.612;2023-04-26T07:26:44;99023.06;;;18.43;57.87
11672;BME280;5892;43.412;24.612;2023-04-26T07:29:11;99019.94;;;18.69;57.72
11672;BME280;5892;43.412;24.612;2023-04-26T07:31:38;99030.25;;;18.69;57.53
11672;BME280;5892;43.412;24.612;2023-04-26T07:34:06;99024.66;;;18.44;56.42
11672;BME280;5892;43.412;24.612;2023-04-26T07:36:32;99016.84;;;17.59;58.94
11672;BME280;5892;43.412;24.612;2023-04-26T07:39:00;99046.13;;;17.60;58.54
11672;BME280;5892;43.412;24.612;2023-04-26T07:41:28;99048.22;;;17.77;58.74
11672;BME280;5892;43.412;24.612;2023-04-26T07:43:55;99045.50;;;17.88;57.78
11672;BME280;5892;43.412;24.612;2023-04-26T07:46:22;99043.66;;;18.35;57.72
11672;BME280;5892;43.412;24.612;2023-04-26T07:48:49;99055.09;;;18.19;59.71
11672;BME280;5892;43.412;24.612;2023-04-26T07:51:16;99018.53;;;17.85;58.89
11672;BME280;5892;43.412;24.612;2023-04-26T07:53:43;99052.72;;;18.10;57.82
11672;BME280;5892;43.412;24.612;2023-04-26T07:56:10;99048.84;;;18.47;56.64
11672;BME280;5892;43.412;24.612;2023-04-26T07:58:38;99032.56;;;18.38;57.24
11672;BME280;5892;43.412;24.612;2023-04-26T08:01:06;99043.84;;;17.76;59.47
11672;BME280;5892;43.412;24.612;2023-04-26T08:03:33;99027.22;;;17.73;57.19
11672;BME280;5892;43.412;24.612;2023-04-26T08:06:00;99005.06;;;17.80;57.96
11672;BME280;5892;43.412;24.612;2023-04-26T08:08:27;99053.91;;;18.20;55.65
11672;BME280;5892;43.412;24.612;2023-04-26T08:10:54;99051.03;;;17.95;56.73
11672;BME280;5892;43.412;24.612;2023-04-26T08:13:22;99046.41;;;18.20;58.22
11672;BME280;5892;43.412;24.612;2023-04-26T08:15:51;99036.03;;;18.00;57.81
11672;BME280;5892;43.412;24.612;2023-04-26T08:18:18;99039.22;;;18.09;57.79
11672;BME280;5892;43.412;24.612;2023-04-26T08:20:44;99041.66;;;18.42;57.53
11672;BME280;5892;43.412;24.612;2023-04-26T08:23:11;98968.75;;;18.10;56.95
11672;BME280;5892;43.412;24.612;2023-04-26T08:25:38;98998.84;;;18.04;57.51
11672;BME280;5892;43.412;24.612;2023-04-26T08:28:05;99026.59;;;18.29;57.62
11672;BME280;5892;43.412;24.612;2023-04-26T08:30:33;99019.53;;;18.63;56.56
11672;BME280;5892;43.412;24.612;2023-04-26T08:33:02;99034.22;;;18.60;57.22
11672;BME280;5892;43.412;24.612;2023-04-26T08:35:29;99027.06;;;18.52;56.53
11672;BME280;5892;43.412;24.612;2023-04-26T08:37:56;99027.91;;;18.88;57.08
11672;BME280;5892;43.412;24.612;2023-04-26T08:40:23;99026.66;;;19.18;57.19
11672;BME280;5892;43.412;24.612;2023-04-26T08:42:50;99000.50;;;19.12;56.48
11672;BME280;5892;43.412;24.612;2023-04-26T08:45:18;99021.91;;;19.22;54.29
11672;BME280;5892;43.412;24.612;2023-04-26T08:47:47;99017.97;;;18.73;54.91
11672;BME280;5892;43.412;24.612;2023-04-26T08:50:19;99035.41;;;18.91;55.27
11672;BME280;5892;43.412;24.612;2023-04-26T08:52:47;99019.53;;;18.95;55.59
11672;BME280;5892;43.412;24.612;2023-04-26T08:55:16;99044.94;;;19.04;55.65
11672;BME280;5892;43.412;24.612;2023-04-26T08:57:45;99040.16;;;19.09;53.50
11672;BME280;5892;43.412;24.612;2023-04-26T09:00:15;99042.53;;;19.14;54.90
11672;BME280;5892;43.412;24.612;2023-04-26T09:02:48;99048.09;;;18.85;55.57
11672;BME280;5892;43.412;24.612;2023-04-26T09:05:16;99039.78;;;18.99;54.43
11672;BME280;5892;43.412;24.612;2023-04-26T09:07:48;99036.94;;;19.38;55.69
11672;BME280;5892;43.412;24.612;2023-04-26T09:10:18;99040.94;;;19.44;53.49
11672;BME280;5892;43.412;24.612;2023-04-26T09:12:46;99040.53;;;19.35;52.43
11672;BME280;5892;43.412;24.612;2023-04-26T09:15:16;99042.13;;;19.36;52.66
11672;BME280;5892;43.412;24.612;2023-04-26T09:17:43;99040.91;;;19.55;53.52
11672;BME280;5892;43.412;24.612;2023-04-26T09:20:22;99029.81;;;19.34;51.44
11672;BME280;5892;43.412;24.612;2023-04-26T09:22:51;98983.78;;;19.40;53.75
11672;BME280;5892;43.412;24.612;2023-04-26T09:25:25;98986.09;;;19.63;52.42
11672;BME280;5892;43.412;24.612;2023-04-26T09:27:53;98952.88;;;19.31;51.78
11672;BME280;5892;43.412;24.612;2023-04-26T09:30:20;98985.38;;;19.34;52.10
11672;BME280;5892;43.412;24.612;2023-04-26T09:32:50;98967.47;;;19.42;51.61
11672;BME280;5892;43.412;24.612;2023-04-26T09:35:23;98927.56;;;18.86;51.82
11672;BME280;5892;43.412;24.612;2023-04-26T09:37:52;98925.56;;;18.97;52.31
11672;BME280;5892;43.412;24.612;2023-04-26T09:40:20;99029.84;;;19.23;52.04
11672;BME280;5892;43.412;24.612;2023-04-26T09:42:55;99036.53;;;19.58;51.33
11672;BME280;5892;43.412;24.612;2023-04-26T09:45:23;99011.94;;;19.49;52.81
11672;BME280;5892;43.412;24.612;2023-04-26T09:47:51;99033.75;;;19.54;53.78
11672;BME280;5892;43.412;24.612;2023-04-26T09:50:30;99034.59;;;19.30;55.33
11672;BME280;5892;43.412;24.612;2023-04-26T09:52:57;99025.69;;;19.92;53.62
11672;BME280;5892;43.412;24.612;2023-04-26T09:55:26;99007.50;;;19.69;50.61
11672;BME280;5892;43.412;24.612;2023-04-26T09:57:54;99037.13;;;20.08;51.11
11672;BME280;5892;43.412;24.612;2023-04-26T10:00:23;99041.56;;;19.98;50.34
11672;BME280;5892;43.412;24.612;2023-04-26T10:02:52;99025.09;;;20.32;52.02
11672;BME280;5892;43.412;24.612;2023-04-26T10:05:22;99032.31;;;20.19;50.04
11672;BME280;5892;43.412;24.612;2023-04-26T10:07:52;99006.13;;;20.13;48.59
11672;BME280;5892;43.412;24.612;2023-04-26T10:10:19;99031.78;;;20.42;47.80
11672;BME280;5892;43.412;24.612;2023-04-26T10:12:47;99035.34;;;20.49;48.21
11672;BME280;5892;43.412;24.612;2023-04-26T10:15:14;99019.72;;;19.97;48.54
11672;BME280;5892;43.412;24.612;2023-04-26T10:17:41;99034.38;;;20.01;48.00
11672;BME280;5892;43.412;24.612;2023-04-26T10:20:10;99030.47;;;19.84;49.89
11672;BME280;5892;43.412;24.612;2023-04-26T10:22:42;99038.41;;;19.93;48.90
11672;BME280;5892;43.412;24.612;2023-04-26T10:25:13;99023.28;;;19.97;47.83
11672;BME280;5892;43.412;24.612;2023-04-26T10:27:50;99032.06;;;19.85;48.63
11672;BME280;5892;43.412;24.612;2023-04-26T10:30:21;99033.44;;;20.28;48.85
11672;BME280;5892;43.412;24.612;2023-04-26T10:33:15;99028.19;;;20.48;47.06
11672;BME280;5892;43.412;24.612;2023-04-26T10:35:59;99033.63;;;19.97;46.70
11672;BME280;5892;43.412;24.612;2023-04-26T10:38:26;99037.03;;;20.25;46.24
11672;BME280;5892;43.412;24.612;2023-04-26T10:40:55;99035.88;;;20.16;47.90
11672;BME280;5892;43.412;24.612;2023-04-26T10:43:43;99027.91;;;20.21;47.43
11672;BME280;5892;43.412;24.612;2023-04-26T10:46:37;99037.44;;;20.20;47.60
11672;BME280;5892;43.412;24.612;2023-04-26T10:49:14;99051.44;;;20.06;48.69
11672;BME280;5892;43.412;24.612;2023-04-26T10:52:09;99045.84;;;20.13;48.07
11672;BME280;5892;43.412;24.612;2023-04-26T10:54:59;99035.56;;;20.03;48.10
11672;BME280;5892;43.412;24.612;2023-04-26T10:57:46;99038.50;;;19.64;49.07
11672;BME280;5892;43.412;24.612;2023-04-26T11:00:31;99040.91;;;19.62;48.12
11672;BME280;5892;43.412;24.612;2023-04-26T11:03:02;99040.06;;;19.76;48.01
11672;BME280;5892;43.412;24.612;2023-04-26T11:05:38;99026.50;;;19.88;47.94
11672;BME280;5892;43.412;24.612;2023-04-26T11:08:07;99022.56;;;19.75;47.16
11672;BME280;5892;43.412;24.612;2023-04-26T11:10:40;99034.69;;;20.24;46.49
11672;BME280;5892;43.412;24.612;2023-04-26T11:13:07;99044.34;;;19.91;46.34
11672;BME280;5892;43.412;24.612;2023-04-26T11:15:35;99044.78;;;19.86;46.86
11672;BME280;5892;43.412;24.612;2023-04-26T11:18:03;99039.22;;;19.79;47.85
11672;BME280;5892;43.412;24.612;2023-04-26T11:20:32;99047.97;;;19.74;47.70
11672;BME280;5892;43.412;24.612;2023-04-26T11:23:00;99052.38;;;19.64;47.66
11672;BME280;5892;43.412;24.612;2023-04-26T11:25:27;99042.88;;;19.37;48.09
11672;BME280;5892;43.412;24.612;2023-04-26T11:28:01;99027.84;;;19.27;48.96
11672;BME280;5892;43.412;24.612;2023-04-26T11:30:31;99034.59;;;19.23;50.06
11672;BME280;5892;43.412;24.612;2023-04-26T11:33:01;99042.16;;;19.19;48.64
11672;BME280;5892;43.412;24.612;2023-04-26T11:35:32;99033.03;;;19.08;48.83
11672;BME280;5892;43.412;24.612;2023-04-26T11:38:02;99030.25;;;19.18;49.18
11672;BME280;5892;43.412;24.612;2023-04-26T11:40:30;99036.19;;;19.31;48.74
11672;BME280;5892;43.412;24.612;2023-04-26T11:42:59;99036.19;;;19.45;49.28
11672;BME280;5892;43.412;24.612;2023-04-26T11:45:27;99033.78;;;19.29;48.78
11672;BME280;5892;43.412;24.612;2023-04-26T11:47:54;99015.94;;;19.30;48.31
11672;BME280;5892;43.412;24.612;2023-04-26T11:50:23;99030.59;;;19.34;48.88
11672;BME280;5892;43.412;24.612;2023-04-26T11:52:53;99029.00;;;19.48;48.46
11672;BME280;5892;43.412;24.612;2023-04-26T11:55:23;99041.63;;;19.77;48.09
11672;BME280;5892;43.412;24.612;2023-04-26T11:57:53;99037.66;;;19.81;47.49
11672;BME280;5892;43.412;24.612;2023-04-26T12:00:20;99028.84;;;19.97;46.85
11672;BME280;5892;43.412;24.612;2023-04-26T12:02:49;99022.88;;;19.95;45.78
11672;BME280;5892;43.412;24.612;2023-04-26T12:05:25;99032.78;;;20.00;45.51
11672;BME280;5892;43.412;24.612;2023-04-26T12:07:53;99018.59;;;19.83;45.54
11672;BME280;5892;43.412;24.612;2023-04-26T12:10:24;99027.03;;;19.55;45.89
11672;BME280;5892;43.412;24.612;2023-04-26T12:12:53;99027.31;;;19.78;47.65
11672;BME280;5892;43.412;24.612;2023-04-26T12:15:28;99031.38;;;19.56;47.30
11672;BME280;5892;43.412;24.612;2023-04-26T12:17:57;99032.97;;;19.54;47.76
11672;BME280;5892;43.412;24.612;2023-04-26T12:20:33;99021.09;;;19.28;47.82
11672;BME280;5892;43.412;24.612;2023-04-26T12:23:03;99025.06;;;19.45;47.28
11672;BME280;5892;43.412;24.612;2023-04-26T12:25:30;99022.28;;;19.41;48.17
11672;BME280;5892;43.412;24.612;2023-04-26T12:27:58;99033.00;;;19.22;47.30
11672;BME280;5892;43.412;24.612;2023-04-26T12:30:26;99034.56;;;19.44;47.09
11672;BME280;5892;43.412;24.612;2023-04-26T12:32:53;99028.63;;;19.28;47.27
11672;BME280;5892;43.412;24.612;2023-04-26T12:35:20;99031.41;;;19.35;46.26
11672;BME280;5892;43.412;24.612;2023-04-26T12:37:49;99017.88;;;19.37;44.94
11672;BME280;5892;43.412;24.612;2023-04-26T12:40:17;99016.72;;;19.49;45.58
11672;BME280;5892;43.412;24.612;2023-04-26T12:42:46;99015.88;;;19.59;46.01
11672;BME280;5892;43.412;24.612;2023-04-26T12:45:13;99018.69;;;19.37;44.08
11672;BME280;5892;43.412;24.612;2023-04-26T12:47:40;99002.03;;;19.34;44.42
11672;BME280;5892;43.412;24.612;2023-04-26T12:50:08;99000.41;;;19.61;43.88
11672;BME280;5892;43.412;24.612;2023-04-26T12:52:37;99019.34;;;19.91;43.03
11672;BME280;5892;43.412;24.612;2023-04-26T12:55:06;99012.19;;;19.94;43.50
11672;BME280;5892;43.412;24.612;2023-04-26T12:57:35;99017.56;;;20.29;44.09
11672;BME280;5892;43.412;24.612;2023-04-26T13:00:03;99016.75;;;20.32;43.17
11672;BME280;5892;43.412;24.612;2023-04-26T13:02:31;98965.28;;;20.03;41.77
11672;BME280;5892;43.412;24.612;2023-04-26T13:04:59;99008.06;;;20.16;40.30